Time;durP1;ratioP1;P1;durP2;ratioP2;P2;SDS_P1;SDS_P2;PMS_P1;PMS_P2;Temp;Humidity;BMP_temperature;BMP_pressure;BME280_temperature;BME280_humidity;BME280_pressure;Samples;Min_cycle;Max_cycle;Signal;HPM_P1;HPM_P2
2023/05/13 00:01:14;;;;;;;6.25;4.10;;;;;;;10.10;88.76;96159.47;5090620;28;20411;-73
2023/05/13 00:03:40;;;;;;;5.03;4.05;;;;;;;10.02;89.24;96158.34;5089887;28;20040;-73
2023/05/13 00:06:07;;;;;;;4.95;3.53;;;;;;;10.19;88.97;96158.38;5090180;28;20392;-73
2023/05/13 00:08:33;;;;;;;7.15;4.07;;;;;;;10.27;89.11;96153.25;5091272;28;20122;-73
2023/05/13 00:11:00;;;;;;;5.78;4.15;;;;;;;10.29;90.13;96149.13;5090121;28;20055;-73
2023/05/13 00:13:28;;;;;;;4.72;3.70;;;;;;;10.29;90.23;96159.22;5090573;28;20120;-73
2023/05/13 00:15:54;;;;;;;6.88;3.67;;;;;;;10.21;89.60;96166.19;5089844;27;20063;-73
2023/05/13 00:18:21;;;;;;;6.65;4.20;;;;;;;10.17;89.83;96166.03;5090354;28;20071;-73
2023/05/13 00:20:48;;;;;;;5.97;5.00;;;;;;;9.96;90.23;96170.50;5090287;28;20058;-73
2023/05/13 00:23:14;;;;;;;10.18;5.35;;;;;;;9.94;90.35;96161.88;5091460;28;20070;-73
2023/05/13 00:25:42;;;;;;;7.78;5.10;;;;;;;9.86;91.40;96166.16;5092279;28;20487;-72
2023/05/13 00:28:09;;;;;;;7.13;5.35;;;;;;;9.80;92.43;96166.63;5088868;27;20393;-73
2023/05/13 00:30:37;;;;;;;7.43;5.50;;;;;;;9.92;92.50;96159.47;5091932;28;20042;-73
2023/05/13 00:33:06;;;;;;;7.55;5.20;;;;;;;9.94;92.32;96167.31;5090800;28;20385;-73
2023/05/13 00:35:32;;;;;;;7.03;5.20;;;;;;;9.91;92.88;96173.38;5092026;28;20044;-72
2023/05/13 00:37:59;;;;;;;5.88;5.00;;;;;;;9.87;92.99;96167.78;5089858;28;20510;-72
2023/05/13 00:40:25;;;;;;;8.25;5.88;;;;;;;9.94;92.46;96170.81;5089220;28;20101;-73
2023/05/13 00:42:52;;;;;;;9.50;5.28;;;;;;;9.93;92.59;96165.72;5090542;28;20044;-73
2023/05/13 00:45:19;;;;;;;7.47;5.25;;;;;;;9.99;93.21;96167.16;5090301;28;20562;-73
2023/05/13 00:47:47;;;;;;;7.82;5.97;;;;;;;9.96;93.36;96167.78;5088814;27;20398;-73
2023/05/13 00:50:14;;;;;;;9.43;5.95;;;;;;;9.94;92.72;96167.31;5089871;28;20048;-73
2023/05/13 00:52:42;;;;;;;12.13;6.40;;;;;;;9.98;92.43;96171.00;5089091;28;20040;-73
2023/05/13 00:55:10;;;;;;;8.80;5.65;;;;;;;9.77;93.30;96170.81;5089979;28;20040;-73
2023/05/13 00:57:37;;;;;;;9.10;6.80;;;;;;;9.75;93.64;96172.22;5089243;27;20484;-73
2023/05/13 01:00:05;;;;;;;8.95;6.70;;;;;;;9.79;94.83;96167.75;5089748;28;20560;-73
2023/05/13 01:02:35;;;;;;;10.98;7.13;;;;;;;9.79;94.52;96165.84;5089806;28;20048;-72
2023/05/13 01:05:13;;;;;;;9.13;7.03;;;;;;;9.69;94.47;96166.13;5089416;28;20043;-74
2023/05/13 01:07:54;;;;;;;10.95;7.07;;;;;;;9.72;94.32;96162.81;5069818;28;20424;-72
2023/05/13 01:10:36;;;;;;;8.85;6.57;;;;;;;9.84;93.99;96162.16;5069429;28;20048;-72
2023/05/13 01:13:11;;;;;;;9.23;6.88;;;;;;;9.81;94.47;96169.03;5069324;28;20048;-73
2023/05/13 01:15:41;;;;;;;8.88;7.00;;;;;;;9.81;94.26;96168.25;5079363;27;20051;-72
2023/05/13 01:18:11;;;;;;;10.90;6.90;;;;;;;9.77;95.13;96172.72;5089850;28;20051;-72
2023/05/13 01:20:42;;;;;;;10.50;7.07;;;;;;;9.66;94.89;96164.06;5090586;28;20075;-72
2023/05/13 01:23:10;;;;;;;12.02;7.90;;;;;;;9.70;94.68;96172.38;5087932;27;20710;-72
2023/05/13 01:25:37;;;;;;;10.98;7.68;;;;;;;9.60;95.30;96170.75;5089869;28;20044;-72
2023/05/13 01:28:05;;;;;;;11.88;7.90;;;;;;;9.66;95.21;96167.59;5088750;27;20044;-72
2023/05/13 01:30:31;;;;;;;10.98;7.85;;;;;;;9.75;95.09;96170.31;5090119;28;20047;-72
2023/05/13 01:32:58;;;;;;;12.40;8.45;;;;;;;9.67;95.84;96173.81;5091088;28;20048;-73
2023/05/13 01:35:26;;;;;;;10.65;7.70;;;;;;;9.84;95.80;96170.34;5092672;28;20051;-73
2023/05/13 01:37:54;;;;;;;12.18;8.80;;;;;;;9.65;95.56;96165.97;5093147;27;20044;-73
2023/05/13 01:40:23;;;;;;;13.57;9.25;;;;;;;9.62;95.80;96166.63;5092225;28;20047;-73
2023/05/13 01:42:49;;;;;;;12.90;9.05;;;;;;;9.73;95.44;96161.69;5091509;27;20643;-72
2023/05/13 01:45:16;;;;;;;13.23;9.40;;;;;;;9.63;96.35;96164.69;5093325;28;20043;-73
2023/05/13 01:47:42;;;;;;;13.98;8.90;;;;;;;9.56;96.77;96162.44;5093793;28;20491;-73
2023/05/13 01:50:09;;;;;;;13.30;8.98;;;;;;;9.47;96.68;96168.97;5091635;28;20050;-74
2023/05/13 01:52:36;;;;;;;14.35;9.90;;;;;;;9.49;97.13;96172.97;5093814;28;20059;-72
2023/05/13 01:55:02;;;;;;;16.27;9.85;;;;;;;9.45;97.16;96172.00;5092866;28;20507;-73
2023/05/13 01:57:30;;;;;;;14.38;9.90;;;;;;;9.50;97.59;96174.59;5094027;28;20067;-72
2023/05/13 01:59:57;;;;;;;16.75;11.00;;;;;;;9.41;97.79;96177.25;5092169;28;20067;-72
2023/05/13 02:02:23;;;;;;;13.85;9.68;;;;;;;9.57;98.07;96169.47;5091173;27;20040;-72
2023/05/13 02:04:50;;;;;;;14.68;10.07;;;;;;;9.58;97.58;96173.78;5093234;28;20422;-72
2023/05/13 02:07:16;;;;;;;13.15;9.07;;;;;;;9.72;96.97;96175.59;5092949;28;20095;-74
2023/05/13 02:09:43;;;;;;;17.05;10.63;;;;;;;9.66;96.53;96174.94;5091528;28;20055;-72
2023/05/13 02:12:09;;;;;;;14.57;10.23;;;;;;;9.55;96.55;96177.16;5092706;27;20051;-73
2023/05/13 02:14:38;;;;;;;15.75;10.32;;;;;;;9.45;96.47;96172.00;5093106;28;20055;-73
2023/05/13 02:17:05;;;;;;;14.60;10.65;;;;;;;9.39;97.76;96173.25;5092977;28;20048;-73
2023/05/13 02:19:31;;;;;;;14.18;10.30;;;;;;;9.34;98.22;96176.09;5093312;28;20044;-73
2023/05/13 02:21:57;;;;;;;16.77;11.65;;;;;;;9.26;98.89;96174.16;5091430;28;20043;-74
2023/05/13 02:24:24;;;;;;;18.60;13.05;;;;;;;9.15;99.42;96169.00;5092372;28;20040;-73
2023/05/13 02:26:51;;;;;;;15.93;11.88;;;;;;;9.30;99.14;96173.22;5092937;28;20043;-73
2023/05/13 02:29:18;;;;;;;18.58;12.75;;;;;;;9.29;99.47;96173.53;5092530;28;20070;-73
2023/05/13 02:31:46;;;;;;;16.27;11.93;;;;;;;9.30;99.80;96175.16;5091986;28;20135;-73
2023/05/13 02:34:12;;;;;;;17.05;11.82;;;;;;;9.28;99.92;96166.50;5091192;28;20113;-73
2023/05/13 02:36:39;;;;;;;15.32;11.30;;;;;;;9.39;99.51;96167.81;5092898;28;20055;-73
2023/05/13 02:39:05;;;;;;;16.17;11.68;;;;;;;9.33;100.00;96171.78;5092821;28;20090;-73
2023/05/13 02:41:32;;;;;;;15.40;11.07;;;;;;;9.30;99.81;96169.72;5093160;28;20052;-74
2023/05/13 02:43:58;;;;;;;14.30;10.63;;;;;;;9.42;99.53;96169.91;5091613;28;20069;-74
2023/05/13 02:46:25;;;;;;;14.80;10.80;;;;;;;9.34;99.26;96170.66;5089563;28;20058;-73
2023/05/13 02:48:53;;;;;;;15.02;11.18;;;;;;;9.15;100.00;96177.16;5091899;27;20485;-73
2023/05/13 02:51:19;;;;;;;16.50;10.68;;;;;;;9.15;100.00;96170.94;5092008;28;20048;-73
2023/05/13 02:53:46;;;;;;;15.82;10.60;;;;;;;9.32;100.00;96175.63;5092323;28;20566;-73
2023/05/13 02:56:15;;;;;;;16.23;11.80;;;;;;;9.34;100.00;96176.94;5091002;27;20044;-73
2023/05/13 02:58:41;;;;;;;18.08;12.73;;;;;;;9.37;100.00;96176.28;5091432;28;20048;-73
2023/05/13 03:01:08;;;;;;;18.85;12.23;;;;;;;9.32;100.00;96172.91;5091678;28;20044;-74
2023/05/13 03:03:34;;;;;;;17.80;13.15;;;;;;;9.26;100.00;96179.59;5092382;28;20055;-74
2023/05/13 03:06:02;;;;;;;18.08;12.88;;;;;;;9.38;100.00;96177.09;5092367;28;20055;-73
2023/05/13 03:08:29;;;;;;;18.27;13.00;;;;;;;9.46;99.72;96168.16;5092072;28;20044;-73
2023/05/13 03:10:55;;;;;;;16.25;12.20;;;;;;;9.51;99.24;96170.75;5089862;28;20051;-73
2023/05/13 03:13:22;;;;;;;16.52;11.85;;;;;;;9.63;98.95;96179.09;5090920;27;20052;-74
2023/05/13 03:15:48;;;;;;;13.63;10.43;;;;;;;9.70;98.93;96172.38;5092014;28;20071;-73
2023/05/13 03:18:15;;;;;;;13.77;10.10;;;;;;;9.68;99.12;96176.22;5092132;28;20044;-74
2023/05/13 03:20:41;;;;;;;10.95;8.77;;;;;;;9.81;98.55;96173.69;5092456;28;20051;-73
2023/05/13 03:23:09;;;;;;;13.07;9.60;;;;;;;9.80;98.73;96172.88;5094326;28;20051;-74
2023/05/13 03:25:35;;;;;;;13.55;10.20;;;;;;;9.60;98.52;96176.19;5095860;28;20049;-74
2023/05/13 03:28:03;;;;;;;12.60;9.65;;;;;;;9.47;98.84;96180.63;5095518;28;20415;-73
2023/05/13 03:30:30;;;;;;;12.05;9.05;;;;;;;9.57;98.96;96180.34;5096245;28;20050;-74
2023/05/13 03:32:56;;;;;;;12.73;10.30;;;;;;;9.45;98.91;96182.06;5094373;28;20055;-74
2023/05/13 03:35:23;;;;;;;13.85;10.48;;;;;;;9.44;98.91;96178.53;5094592;27;20043;-74
2023/05/13 03:37:49;;;;;;;12.40;9.55;;;;;;;9.45;99.13;96182.06;5096552;28;20052;-74
2023/05/13 03:40:18;;;;;;;11.10;8.43;;;;;;;9.53;99.23;96184.81;5097237;28;20040;-73
2023/05/13 03:42:45;;;;;;;11.90;9.38;;;;;;;9.50;99.39;96184.63;5095808;28;20051;-74
2023/05/13 03:45:11;;;;;;;13.27;9.40;;;;;;;9.55;99.25;96193.47;5096572;28;20052;-73
2023/05/13 03:47:39;;;;;;;13.48;9.50;;;;;;;9.55;98.61;96188.03;5096267;28;20044;-74
2023/05/13 03:50:06;;;;;;;13.40;9.07;;;;;;;9.56;98.92;96195.06;5096437;28;20340;-73
2023/05/13 03:52:32;;;;;;;16.42;9.73;;;;;;;9.59;99.01;96199.06;5096161;28;20040;-73
2023/05/13 03:54:59;;;;;;;14.20;10.10;;;;;;;9.38;99.48;96198.81;5093717;28;20393;-73
2023/05/13 03:57:27;;;;;;;17.25;11.45;;;;;;;9.33;98.98;96201.69;5097349;27;20100;-73
2023/05/13 03:59:53;;;;;;;15.73;10.70;;;;;;;9.33;99.58;96201.69;5094128;28;20415;-73
2023/05/13 04:02:20;;;;;;;16.05;10.82;;;;;;;9.52;98.62;96193.28;5090998;28;20574;-73
2023/05/13 04:04:47;;;;;;;18.45;10.93;;;;;;;9.53;98.93;96195.69;5087539;27;20074;-73
2023/05/13 04:07:13;;;;;;;16.98;11.10;;;;;;;9.57;98.48;96204.00;5090807;28;20048;-72
2023/05/13 04:09:40;;;;;;;13.88;10.32;;;;;;;9.72;98.44;96203.59;5091244;28;20515;-74
2023/05/13 04:12:06;;;;;;;14.90;9.73;;;;;;;9.77;98.22;96210.81;5090532;28;20046;-72
2023/05/13 04:14:34;;;;;;;11.23;7.53;;;;;;;9.69;98.25;96212.38;5091101;28;20044;-73
2023/05/13 04:17:01;;;;;;;11.50;8.15;;;;;;;9.66;97.78;96211.09;5089216;28;20048;-75
2023/05/13 04:19:27;;;;;;;11.43;8.40;;;;;;;9.62;97.87;96210.09;5090417;28;20506;-73
2023/05/13 04:21:54;;;;;;;10.60;7.97;;;;;;;9.74;97.78;96214.13;5090005;28;20044;-73
2023/05/13 04:24:20;;;;;;;11.05;7.70;;;;;;;9.82;97.51;96218.81;5089979;28;20048;-73
2023/05/13 04:26:47;;;;;;;9.55;7.55;;;;;;;9.80;97.81;96215.59;5089492;28;20040;-72
2023/05/13 04:29:16;;;;;;;9.55;6.95;;;;;;;9.75;97.14;96223.91;5089052;28;20067;-73
2023/05/13 04:31:43;;;;;;;10.27;7.38;;;;;;;9.54;96.91;96219.03;5090399;28;20400;-73
2023/05/13 04:34:10;;;;;;;12.02;7.80;;;;;;;9.37;97.57;96224.41;5090042;28;20051;-73
2023/05/13 04:36:36;;;;;;;11.35;8.10;;;;;;;9.29;98.24;96227.88;5090369;28;20040;-75
2023/05/13 04:39:03;;;;;;;11.20;7.85;;;;;;;9.28;99.66;96223.56;5090450;28;20135;-73
2023/05/13 04:41:30;;;;;;;11.88;8.25;;;;;;;9.28;99.25;96220.84;5087553;28;20044;-73
2023/05/13 04:43:56;;;;;;;12.10;8.70;;;;;;;9.32;100.00;96229.97;5090562;28;20059;-73
2023/05/13 04:46:22;;;;;;;13.63;8.57;;;;;;;9.38;100.00;96231.44;5090368;28;20040;-73
2023/05/13 04:48:50;;;;;;;11.85;8.27;;;;;;;9.35;100.00;96235.59;5089692;28;20052;-73
2023/05/13 04:51:17;;;;;;;16.00;8.40;;;;;;;9.38;100.00;96231.44;5089172;27;20040;-73
2023/05/13 04:53:43;;;;;;;11.65;8.00;;;;;;;9.44;100.00;96230.19;5088746;28;20517;-73
2023/05/13 04:56:10;;;;;;;13.15;8.60;;;;;;;9.45;100.00;96236.41;5089229;28;20052;-73
2023/05/13 04:58:36;;;;;;;17.95;8.68;;;;;;;9.38;100.00;96242.31;5090288;28;20495;-73
2023/05/13 05:01:02;;;;;;;14.57;7.95;;;;;;;9.38;100.00;96245.03;5089860;28;20044;-74
2023/05/13 05:03:29;;;;;;;14.43;8.20;;;;;;;9.28;100.00;96237.13;5088549;27;20051;-73
2023/05/13 05:05:58;;;;;;;15.27;9.40;;;;;;;9.34;100.00;96242.16;5089064;28;20043;-73
2023/05/13 05:08:24;;;;;;;13.93;8.50;;;;;;;9.25;100.00;96243.22;5089068;28;20044;-74
2023/05/13 05:10:51;;;;;;;11.63;7.93;;;;;;;9.27;100.00;96240.97;5089993;28;20413;-74
2023/05/13 05:13:17;;;;;;;19.30;8.95;;;;;;;9.26;100.00;96245.59;5088300;28;20048;-74
2023/05/13 05:15:44;;;;;;;14.68;8.13;;;;;;;9.43;100.00;96244.88;5089962;28;20098;-74
2023/05/13 05:18:10;;;;;;;13.95;8.95;;;;;;;9.44;100.00;96240.25;5088565;28;20056;-73
2023/05/13 05:20:37;;;;;;;12.10;8.55;;;;;;;9.44;100.00;96235.59;5089969;28;20047;-74
2023/05/13 05:23:06;;;;;;;13.70;8.88;;;;;;;9.58;100.00;96244.47;5089143;28;20055;-74
2023/05/13 05:25:32;;;;;;;11.02;7.82;;;;;;;9.64;100.00;96251.38;5089877;28;20068;-74
2023/05/13 05:27:59;;;;;;;11.75;8.40;;;;;;;9.67;100.00;96253.47;5089805;28;20048;-73
2023/05/13 05:30:25;;;;;;;10.73;7.75;;;;;;;9.68;100.00;96257.78;5087790;28;20044;-74
2023/05/13 05:32:52;;;;;;;12.52;8.00;;;;;;;9.47;100.00;96251.31;5089755;28;20048;-74
2023/05/13 05:35:19;;;;;;;14.43;8.90;;;;;;;9.53;100.00;96260.91;5089176;28;20055;-73
2023/05/13 05:37:45;;;;;;;16.85;8.93;;;;;;;9.60;100.00;96263.19;5089822;28;20457;-74
2023/05/13 05:40:13;;;;;;;14.50;8.60;;;;;;;9.44;100.00;96257.34;5088385;28;20455;-74
2023/05/13 05:42:40;;;;;;;15.65;9.13;;;;;;;9.35;100.00;96265.47;5088965;28;20051;-73
2023/05/13 05:45:07;;;;;;;11.88;8.27;;;;;;;9.47;100.00;96262.19;5089103;28;20133;-74
2023/05/13 05:47:34;;;;;;;14.15;9.23;;;;;;;9.35;100.00;96264.69;5089924;28;20430;-74
2023/05/13 05:50:00;;;;;;;10.85;8.40;;;;;;;9.28;100.00;96269.75;5089589;28;20614;-74
2023/05/13 05:52:27;;;;;;;13.40;8.20;;;;;;;9.12;100.00;96266.63;5086808;28;20495;-74
2023/05/13 05:54:53;;;;;;;12.68;8.23;;;;;;;9.30;100.00;96268.34;5089250;28;20067;-75
2023/05/13 05:57:21;;;;;;;13.55;8.30;;;;;;;9.39;100.00;96269.16;5088608;28;20044;-73
2023/05/13 05:59:48;;;;;;;12.43;8.50;;;;;;;9.50;100.00;96269.72;5089450;28;20050;-74
2023/05/13 06:02:14;;;;;;;15.32;8.65;;;;;;;9.41;100.00;96268.88;5088298;28;20048;-74
2023/05/13 06:04:41;;;;;;;14.05;8.75;;;;;;;9.25;99.98;96270.38;5084043;28;20043;-75
2023/05/13 06:07:08;;;;;;;14.70;9.27;;;;;;;9.16;100.00;96278.47;5085339;28;20075;-75
2023/05/13 06:09:34;;;;;;;15.98;9.55;;;;;;;9.11;100.00;96276.69;5085529;28;20105;-75
2023/05/13 06:12:01;;;;;;;11.02;8.52;;;;;;;8.99;100.00;96267.50;5086311;28;20054;-75
2023/05/13 06:14:28;;;;;;;12.57;8.50;;;;;;;9.06;100.00;96268.66;5085263;28;20044;-74
2023/05/13 06:16:55;;;;;;;12.13;8.32;;;;;;;9.18;100.00;96275.44;5085569;28;20051;-75
2023/05/13 06:19:21;;;;;;;14.98;8.73;;;;;;;9.13;100.00;96266.31;5088021;28;20051;-75
2023/05/13 06:21:48;;;;;;;11.77;8.27;;;;;;;9.27;100.00;96270.88;5092507;28;20052;-75
2023/05/13 06:24:15;;;;;;;13.05;7.72;;;;;;;9.39;100.00;96287.38;5092367;28;20040;-75
2023/05/13 06:26:43;;;;;;;12.00;7.88;;;;;;;9.29;100.00;96277.59;5091707;28;20044;-75
2023/05/13 06:29:09;;;;;;;9.65;6.90;;;;;;;9.36;100.00;96280.66;5092051;28;20064;-79
2023/05/13 06:31:37;;;;;;;9.85;7.13;;;;;;;9.50;100.00;96282.47;5092728;28;20052;-75
2023/05/13 06:34:03;;;;;;;10.00;7.00;;;;;;;9.68;100.00;96284.19;5092295;28;20051;-76
2023/05/13 06:36:30;;;;;;;10.52;7.57;;;;;;;9.77;100.00;96279.59;5090513;28;20066;-75
2023/05/13 06:38:57;;;;;;;9.85;6.78;;;;;;;9.66;98.79;96279.06;5088589;28;20044;-75
2023/05/13 06:41:23;;;;;;;13.98;7.70;;;;;;;9.70;100.00;96281.13;5090864;28;20044;-75
2023/05/13 06:43:50;;;;;;;10.18;6.82;;;;;;;9.77;98.94;96278.78;5091345;28;20725;-75
2023/05/13 06:46:16;;;;;;;10.60;6.50;;;;;;;9.88;98.79;96285.53;5091034;27;20079;-75
2023/05/13 06:48:44;;;;;;;8.80;5.28;;;;;;;10.06;97.84;96275.50;5091210;27;20082;-75
2023/05/13 06:51:10;;;;;;;8.20;5.38;;;;;;;10.09;97.32;96283.84;5092217;28;20526;-76
2023/05/13 06:53:37;;;;;;;9.43;5.38;;;;;;;10.01;96.29;96279.16;5092459;28;20043;-77
2023/05/13 06:56:04;;;;;;;7.28;5.25;;;;;;;9.79;95.39;96281.97;5092115;28;20058;-75
2023/05/13 06:58:30;;;;;;;8.20;5.30;;;;;;;9.87;96.10;96281.22;5092547;28;20566;-75
2023/05/13 07:00:56;;;;;;;7.88;5.80;;;;;;;9.80;96.56;96281.66;5091177;28;20123;-75
2023/05/13 07:03:23;;;;;;;7.47;4.85;;;;;;;9.96;95.95;96279.31;5091680;28;20499;-75
2023/05/13 07:05:51;;;;;;;7.70;5.25;;;;;;;10.09;96.03;96283.84;5092343;27;20566;-74
2023/05/13 07:08:17;;;;;;;7.60;5.40;;;;;;;10.10;95.95;96285.44;5092392;27;20051;-75
2023/05/13 07:10:44;;;;;;;7.13;5.00;;;;;;;10.15;96.30;96281.78;5094030;28;20498;-75
2023/05/13 07:13:11;;;;;;;8.88;5.50;;;;;;;10.16;96.04;96289.59;5091328;28;20051;-75
2023/05/13 07:15:38;;;;;;;8.80;5.22;;;;;;;10.01;96.16;96286.53;5092159;28;20044;-75
2023/05/13 07:18:04;;;;;;;7.47;4.85;;;;;;;9.98;95.33;96287.16;5092175;28;20552;-75
2023/05/13 07:20:31;;;;;;;6.25;4.22;;;;;;;10.00;95.12;96284.94;5092312;28;20047;-74
2023/05/13 07:22:58;;;;;;;7.07;4.55;;;;;;;10.08;94.93;96297.75;5092197;28;20074;-75
2023/05/13 07:25:25;;;;;;;12.15;5.28;;;;;;;10.08;95.09;96287.69;5090814;28;20749;-75
2023/05/13 07:27:51;;;;;;;19.85;6.85;;;;;;;9.97;94.33;96294.53;5092190;28;20606;-75
2023/05/13 07:30:18;;;;;;;20.98;6.40;;;;;;;9.98;95.11;96293.41;5091703;28;20059;-75
2023/05/13 07:32:44;;;;;;;18.15;5.78;;;;;;;10.04;95.79;96289.44;5091308;28;20040;-75
2023/05/13 07:35:11;;;;;;;38.53;6.97;;;;;;;10.00;96.67;96288.44;5091235;28;20044;-75
2023/05/13 07:37:37;;;;;;;30.95;6.55;;;;;;;10.13;95.61;96294.91;5091680;28;20130;-74
2023/05/13 07:40:07;;;;;;;28.80;6.18;;;;;;;10.13;94.97;96292.97;5091491;28;20054;-77
2023/05/13 07:42:33;;;;;;;33.33;6.55;;;;;;;10.02;94.76;96294.34;5089014;28;20055;-75
2023/05/13 07:45:00;;;;;;;20.77;6.07;;;;;;;10.10;95.17;96296.31;5091436;28;20499;-74
2023/05/13 07:47:27;;;;;;;20.90;6.30;;;;;;;10.19;94.77;96301.78;5091906;28;20846;-75
2023/05/13 07:49:54;;;;;;;25.83;6.85;;;;;;;10.16;95.50;96305.94;5092715;28;20044;-75
2023/05/13 07:52:20;;;;;;;18.30;6.72;;;;;;;10.16;95.21;96311.38;5088322;28;20135;-75
2023/05/13 07:54:47;;;;;;;24.40;7.03;;;;;;;10.32;95.41;96302.78;5090600;28;20040;-75
2023/05/13 07:57:15;;;;;;;16.58;6.50;;;;;;;10.40;94.73;96304.75;5092893;28;20047;-75
2023/05/13 07:59:42;;;;;;;22.27;6.85;;;;;;;10.41;94.79;96306.34;5093035;28;20040;-75
2023/05/13 08:02:08;;;;;;;19.35;5.97;;;;;;;10.40;93.90;96308.28;5093283;28;20406;-74
2023/05/13 08:04:35;;;;;;;17.35;6.05;;;;;;;10.43;94.01;96310.34;5093653;28;20051;-75
2023/05/13 08:07:02;;;;;;;18.95;7.20;;;;;;;10.30;93.05;96311.28;5095307;28;20047;-77
2023/05/13 08:09:28;;;;;;;15.00;6.50;;;;;;;10.14;94.87;96308.19;5098621;28;20036;-75
2023/05/13 08:11:55;;;;;;;31.27;8.18;;;;;;;10.18;94.69;96311.06;5092621;28;20054;-75
2023/05/13 08:14:23;;;;;;;19.50;7.25;;;;;;;10.17;94.71;96304.81;5096483;28;20411;-75
2023/05/13 08:16:49;;;;;;;19.17;7.45;;;;;;;10.26;95.51;96309.50;5098566;28;20399;-74
2023/05/13 08:19:16;;;;;;;21.83;7.97;;;;;;;10.34;95.29;96316.91;5099230;28;20044;-74
2023/05/13 08:21:43;;;;;;;26.77;6.78;;;;;;;10.49;94.60;96308.25;5099807;28;20391;-75
2023/05/13 08:24:09;;;;;;;19.52;6.88;;;;;;;10.33;94.91;96310.63;5098341;27;20040;-77
2023/05/13 08:26:37;;;;;;;26.00;7.57;;;;;;;10.24;96.31;96320.72;5099146;28;20044;-75
2023/05/13 08:29:03;;;;;;;18.65;7.10;;;;;;;10.11;97.14;96314.25;5094471;28;20051;-76
2023/05/13 08:31:31;;;;;;;21.50;7.43;;;;;;;10.19;97.55;96316.19;5096081;28;20052;-75
2023/05/13 08:33:58;;;;;;;28.05;8.48;;;;;;;10.23;97.54;96310.91;5095729;28;20044;-75
2023/05/13 08:36:26;;;;;;;27.85;7.90;;;;;;;10.30;97.07;96308.56;5092857;28;20036;-74
2023/05/13 08:38:52;;;;;;;24.48;7.60;;;;;;;10.32;95.74;96313.69;5095869;28;20126;-75
2023/05/13 08:41:19;;;;;;;51.92;9.85;;;;;;;10.30;95.23;96318.66;5094071;28;20054;-74
2023/05/13 08:43:47;;;;;;;33.10;7.75;;;;;;;10.20;97.17;96317.78;5094091;28;20152;-74
2023/05/13 08:46:16;;;;;;;23.05;8.52;;;;;;;10.11;97.24;96319.69;5094105;28;20051;-75
2023/05/13 08:48:45;;;;;;;32.00;8.70;;;;;;;10.30;97.73;96318.66;5093707;28;20039;-74
2023/05/13 08:51:12;;;;;;;30.27;8.77;;;;;;;10.37;97.81;96310.81;5093757;28;20040;-74
2023/05/13 08:53:39;;;;;;;25.73;7.20;;;;;;;10.48;95.04;96317.56;5094247;28;20048;-75
2023/05/13 08:56:08;;;;;;;28.42;7.65;;;;;;;10.54;94.39;96321.72;5092460;28;20047;-75
2023/05/13 08:58:34;;;;;;;23.67;6.55;;;;;;;10.77;96.39;96318.88;5095903;28;20488;-75
2023/05/13 09:01:02;;;;;;;23.20;6.45;;;;;;;10.98;94.16;96319.84;5094592;27;20044;-74
2023/05/13 09:03:29;;;;;;;11.48;6.55;;;;;;;11.27;93.61;96321.88;5092865;28;20471;-75
2023/05/13 09:05:59;;;;;;;8.00;5.40;;;;;;;11.42;92.53;96317.84;5092588;28;20048;-73
2023/05/13 09:08:26;;;;;;;6.13;4.50;;;;;;;11.48;89.96;96319.28;5091843;28;20044;-74
2023/05/13 09:10:53;;;;;;;9.15;5.05;;;;;;;11.54;88.84;96314.44;5092468;28;20043;-74
2023/05/13 09:13:19;;;;;;;13.07;5.18;;;;;;;11.53;88.62;96319.09;5088776;28;20501;-74
2023/05/13 09:15:46;;;;;;;15.43;5.38;;;;;;;11.35;87.87;96317.56;5090431;28;20048;-75
2023/05/13 09:18:15;;;;;;;24.45;6.03;;;;;;;11.29;88.70;96318.84;5090517;28;20040;-76
2023/05/13 09:20:41;;;;;;;13.48;5.85;;;;;;;11.27;88.38;96315.63;5090185;28;20052;-74
2023/05/13 09:23:14;;;;;;;25.50;5.93;;;;;;;11.30;88.51;96320.47;5089108;28;20047;-76
2023/05/13 09:25:41;;;;;;;21.85;5.63;;;;;;;11.14;88.27;96318.22;5090413;28;20131;-76
2023/05/13 09:28:08;;;;;;;11.20;4.80;;;;;;;11.06;87.56;96321.75;5081817;28;20454;-75
2023/05/13 09:30:37;;;;;;;16.77;5.50;;;;;;;11.16;87.81;96326.06;5089290;28;20068;-74
2023/05/13 09:33:06;;;;;;;19.05;5.50;;;;;;;11.15;89.40;96324.47;5088830;28;20090;-75
2023/05/13 09:35:32;;;;;;;5.25;3.47;;;;;;;11.05;87.30;96324.81;5089184;28;20040;-74
2023/05/13 09:37:59;;;;;;;6.05;3.25;;;;;;;11.13;86.52;96321.28;5090310;28;20395;-74
2023/05/13 09:40:27;;;;;;;5.63;3.10;;;;;;;11.17;87.93;96323.03;5090104;28;20041;-75
2023/05/13 09:42:57;;;;;;;5.25;2.80;;;;;;;11.22;86.98;96325.59;5092371;28;20055;-74
2023/05/13 09:45:25;;;;;;;4.38;3.20;;;;;;;11.07;86.66;96323.38;5091272;28;20392;-76
2023/05/13 09:47:55;;;;;;;7.82;7.05;;;;;;;11.37;87.30;96321.56;5090086;28;20551;-75
2023/05/13 09:50:22;;;;;;;14.50;5.63;;;;;;;11.56;87.44;96328.59;5091370;28;20056;-74
2023/05/13 09:52:49;;;;;;;26.10;7.57;;;;;;;11.35;86.67;96323.00;5090788;28;20040;-76
2023/05/13 09:55:15;;;;;;;7.68;6.28;;;;;;;11.47;87.40;96325.88;5095837;28;20036;-76
2023/05/13 09:57:43;;;;;;;4.38;3.20;;;;;;;11.34;86.00;96326.88;5094158;28;20044;-74
2023/05/13 10:00:10;;;;;;;4.43;3.47;;;;;;;11.23;86.56;96324.47;5093240;27;20040;-75
2023/05/13 10:02:38;;;;;;;4.63;3.58;;;;;;;11.33;87.29;96311.63;5094589;28;20051;-76
2023/05/13 10:05:08;;;;;;;12.50;4.75;;;;;;;11.38;85.48;96317.72;5093201;28;20063;-76
2023/05/13 10:07:36;;;;;;;5.55;4.10;;;;;;;11.46;86.89;96318.81;5093662;28;20052;-74
2023/05/13 10:10:04;;;;;;;13.95;4.57;;;;;;;11.53;86.92;96321.03;5092075;27;20067;-75
2023/05/13 10:12:32;;;;;;;9.75;4.70;;;;;;;11.50;85.79;96319.78;5094054;28;20131;-75
2023/05/13 10:15:01;;;;;;;3.50;2.95;;;;;;;11.64;86.07;96314.09;5093451;28;20078;-74
2023/05/13 10:17:30;;;;;;;8.40;4.70;;;;;;;11.76;84.81;96323.22;5092351;28;20087;-74
2023/05/13 10:20:08;;;;;;;9.25;4.18;;;;;;;12.01;85.01;96323.50;5079875;28;20402;-74
2023/05/13 10:22:37;;;;;;;4.25;2.88;;;;;;;12.03;82.50;96315.78;5090119;27;20046;-75
2023/05/13 10:25:05;;;;;;;7.18;3.55;;;;;;;12.26;83.47;96317.09;5081181;28;20422;-75
2023/05/13 10:27:33;;;;;;;6.93;3.75;;;;;;;12.47;83.70;96319.06;5082931;28;20047;-73
2023/05/13 10:30:04;;;;;;;6.45;3.95;;;;;;;12.40;80.96;96321.53;5093302;28;20044;-74
2023/05/13 10:32:31;;;;;;;3.85;2.45;;;;;;;12.41;80.61;96318.47;5093445;28;20047;-74
2023/05/13 10:35:04;;;;;;;5.18;3.15;;;;;;;12.30;82.41;96316.44;5091492;27;20500;-74
2023/05/13 10:37:54;;;;;;;4.03;2.53;;;;;;;12.52;82.17;96316.13;5093595;28;20492;-75
2023/05/13 10:40:31;;;;;;;4.65;2.50;;;;;;;12.40;81.79;96314.13;5093179;28;20039;-75
2023/05/13 10:43:10;;;;;;;8.40;4.30;;;;;;;12.49;82.33;96316.81;5096337;28;20071;-74
2023/05/13 10:45:38;;;;;;;7.63;3.50;;;;;;;12.38;82.90;96310.94;5096998;28;20142;-75
2023/05/13 10:48:08;;;;;;;3.92;3.00;;;;;;;12.35;81.88;96321.72;5096835;28;20044;-75
2023/05/13 10:50:36;;;;;;;4.10;2.80;;;;;;;12.24;80.74;96315.84;5097733;28;20047;-74
2023/05/13 10:53:09;;;;;;;7.18;4.00;;;;;;;12.39;80.83;96309.00;5097476;28;20044;-74
2023/05/13 10:55:41;;;;;;;12.35;4.70;;;;;;;12.43;82.00;96315.41;5097984;28;20048;-75
2023/05/13 10:58:09;;;;;;;8.07;4.00;;;;;;;12.57;82.04;96318.69;5099827;28;20457;-76
2023/05/13 11:00:38;;;;;;;8.60;4.25;;;;;;;12.63;82.11;96322.81;5099961;28;20572;-75
2023/05/13 11:03:13;;;;;;;5.32;3.70;;;;;;;12.46;81.06;96318.25;5097856;28;20051;-75
2023/05/13 11:05:41;;;;;;;4.78;3.28;;;;;;;12.32;79.09;96317.72;5098558;28;20050;-76
2023/05/13 11:08:07;;;;;;;4.38;2.90;;;;;;;12.47;79.38;96324.53;5098624;28;20396;-76
2023/05/13 11:10:35;;;;;;;3.38;2.47;;;;;;;12.34;79.29;96328.31;5099233;28;20051;-75
2023/05/13 11:13:23;;;;;;;3.95;2.75;;;;;;;12.35;78.92;96325.25;5098256;28;20101;-75
2023/05/13 11:15:54;;;;;;;9.90;3.22;;;;;;;12.54;79.69;96324.81;5094303;28;20040;-74
2023/05/13 11:18:32;;;;;;;16.90;4.05;;;;;;;12.53;80.46;96324.03;5096694;27;20069;-75
2023/05/13 11:21:02;;;;;;;20.25;3.92;;;;;;;12.62;79.29;96321.22;5068191;22;20060;-74
2023/05/13 11:23:29;;;;;;;7.32;3.03;;;;;;;12.50;80.11;96318.41;5080388;28;20137;-75
2023/05/13 11:26:14;;;;;;;15.90;3.78;;;;;;;12.52;78.53;96318.88;5074555;28;20041;-74
2023/05/13 11:28:59;;;;;;;17.15;3.92;;;;;;;12.68;80.87;96317.16;5072206;28;20466;-74
2023/05/13 11:31:28;;;;;;;36.45;5.47;;;;;;;12.59;79.20;96315.63;5070223;28;20048;-74